Time;durP1;ratioP1;P1;durP2;ratioP2;P2;SDS_P1;SDS_P2;PMS_P1;PMS_P2;Temp;Humidity;BMP_temperature;BMP_pressure;BME280_temperature;BME280_humidity;BME280_pressure;Samples;Min_cycle;Max_cycle;Signal;HPM_P1;HPM_P2
2021/08/07 00:00:58;;;;;;;5.35;4.55;;;;;;;22.87;85.03;100269.25;1719708;83;21000;-82
2021/08/07 00:03:25;;;;;;;7.50;4.65;;;;;;;22.77;85.81;100260.31;1719868;83;21571;-79
2021/08/07 00:05:51;;;;;;;5.70;4.72;;;;;;;22.70;86.54;100244.88;1719567;83;21043;-81
2021/08/07 00:08:19;;;;;;;7.35;5.15;;;;;;;22.65;87.32;100240.14;1719669;83;21045;-74
2021/08/07 00:10:46;;;;;;;8.45;5.17;;;;;;;22.59;87.33;100247.48;1719705;83;21140;-79
2021/08/07 00:13:12;;;;;;;5.65;4.60;;;;;;;22.55;87.81;100243.59;1719502;83;20943;-82
2021/08/07 00:15:41;;;;;;;9.08;4.65;;;;;;;22.53;88.11;100245.59;1719684;83;21058;-77
2021/08/07 00:18:08;;;;;;;7.58;4.70;;;;;;;22.51;88.49;100235.72;1719922;83;20936;-78
2021/08/07 00:20:35;;;;;;;6.97;4.05;;;;;;;22.47;88.79;100215.94;1719896;83;21399;-82
2021/08/07 00:23:02;;;;;;;6.85;4.78;;;;;;;22.46;89.06;100218.25;1719729;83;21102;-71
2021/08/07 00:25:29;;;;;;;11.03;4.67;;;;;;;22.43;89.32;100205.41;1719676;83;20939;-77
2021/08/07 00:27:55;;;;;;;7.55;4.58;;;;;;;22.40;89.62;100195.22;1719627;83;21066;-75
2021/08/07 00:30:22;;;;;;;9.00;4.60;;;;;;;22.37;90.01;100192.16;1719602;83;20999;-77
2021/08/07 00:32:50;;;;;;;7.95;5.47;;;;;;;22.30;90.52;100202.66;1719796;83;20884;-77
2021/08/07 00:35:18;;;;;;;12.25;5.55;;;;;;;22.24;91.15;100207.35;1719555;83;21754;-78
2021/08/07 00:37:47;;;;;;;5.58;4.65;;;;;;;22.18;91.73;100212.59;1719774;83;20928;-77
2021/08/07 00:40:15;;;;;;;5.50;4.65;;;;;;;22.13;92.23;100225.86;1719745;83;20935;-77
2021/08/07 00:42:42;;;;;;;5.97;4.60;;;;;;;22.11;92.42;100245.56;1719636;83;21075;-79
2021/08/07 00:45:12;;;;;;;7.78;4.75;;;;;;;22.07;92.78;100261.45;1717583;83;21052;-76
2021/08/07 00:47:39;;;;;;;4.87;4.25;;;;;;;22.05;92.94;100262.95;1719563;83;21411;-77
2021/08/07 00:50:08;;;;;;;9.15;3.90;;;;;;;22.02;92.76;100266.45;1719521;83;20949;-77
2021/08/07 00:52:36;;;;;;;5.92;4.47;;;;;;;21.98;92.25;100263.39;1719679;83;20940;-76
2021/08/07 00:55:06;;;;;;;6.03;4.10;;;;;;;21.98;91.86;100266.53;1719521;83;20924;-74
2021/08/07 00:57:33;;;;;;;9.23;4.37;;;;;;;21.98;91.37;100274.45;1719661;83;21561;-79
2021/08/07 01:00:03;;;;;;;4.65;3.58;;;;;;;21.97;90.74;100268.34;1719577;83;21521;-73
2021/08/07 01:02:32;;;;;;;4.50;4.10;;;;;;;21.96;90.28;100264.06;1719541;82;21510;-79
2021/08/07 01:05:09;;;;;;;6.70;3.50;;;;;;;21.96;89.73;100264.06;1719692;83;20921;-72
2021/08/07 01:08:02;;;;;;;5.80;3.70;;;;;;;21.94;88.64;100257.33;1719695;83;21043;-75
2021/08/07 01:10:39;;;;;;;7.53;3.65;;;;;;;21.91;87.71;100257.20;1719751;83;20911;-75
2021/08/07 01:13:26;;;;;;;4.08;3.35;;;;;;;21.90;86.41;100261.33;1719117;83;21118;-75
2021/08/07 01:16:14;;;;;;;4.72;3.25;;;;;;;21.89;85.67;100278.20;1717296;83;20936;-78
2021/08/07 01:18:43;;;;;;;6.53;3.62;;;;;;;21.87;84.59;100298.16;1719734;83;20948;-79
2021/08/07 01:21:15;;;;;;;3.58;2.95;;;;;;;21.87;83.97;100305.26;1693346;83;21546;-76
2021/08/07 01:23:58;;;;;;;6.05;3.15;;;;;;;21.86;83.14;100315.50;1718274;83;21474;-74
2021/08/07 01:26:40;;;;;;;5.75;3.20;;;;;;;21.85;82.47;100309.42;1719744;83;21187;-72
2021/08/07 01:29:15;;;;;;;7.03;3.08;;;;;;;21.85;81.38;100313.38;1715704;83;20964;-74
2021/08/07 01:31:46;;;;;;;6.37;2.90;;;;;;;21.83;80.79;100306.12;1719436;83;20991;-76
2021/08/07 01:34:15;;;;;;;3.20;2.50;;;;;;;21.82;80.11;100312.42;1692930;83;20987;-80
2021/08/07 01:36:46;;;;;;;6.78;3.33;;;;;;;21.81;79.26;100316.55;1719835;83;21051;-75
2021/08/07 01:39:15;;;;;;;4.90;3.08;;;;;;;21.80;79.08;100330.26;1670047;83;22056;-78
2021/08/07 01:41:43;;;;;;;4.47;2.47;;;;;;;21.79;78.60;100336.56;1719875;83;20900;-76
2021/08/07 01:44:12;;;;;;;3.27;2.40;;;;;;;21.80;78.26;100343.47;1719172;83;20948;-75
2021/08/07 01:46:56;;;;;;;2.80;2.60;;;;;;;21.81;77.77;100343.80;1719760;83;20991;-76
2021/08/07 01:50:04;;;;;;;2.77;2.40;;;;;;;21.82;77.19;100352.55;1719639;82;21011;-75
2021/08/07 01:52:34;;;;;;;4.85;2.75;;;;;;;21.81;76.38;100350.89;1666161;85;21795;-79
2021/08/07 01:55:09;;;;;;;2.55;2.00;;;;;;;21.81;75.56;100348.25;1711975;83;21545;-74
2021/08/07 01:57:41;;;;;;;3.90;2.52;;;;;;;21.78;74.85;100352.08;1719828;83;20936;-75
2021/08/07 02:00:12;;;;;;;9.28;2.55;;;;;;;21.75;74.08;100365.66;1720022;83;20974;-77
2021/08/07 02:02:41;;;;;;;3.12;2.50;;;;;;;21.74;73.23;100353.44;1720274;83;21475;-73
2021/08/07 02:05:10;;;;;;;2.92;2.42;;;;;;;21.74;73.23;100353.44;1693045;83;21136;-76
2021/08/07 02:07:40;;;;;;;;;;;;;;;21.75;72.52;100352.45;1696885;83;21545;-82
2021/08/07 02:10:09;;;;;;;3.80;2.50;;;;;;;21.73;71.98;100348.35;1719961;83;20133;-81
2021/08/07 02:12:37;;;;;;;6.80;3.22;;;;;;;21.68;72.03;100348.87;1719786;83;20963;-75
2021/08/07 02:15:08;;;;;;;4.42;2.42;;;;;;;21.64;71.74;100341.81;1719042;83;21047;-78
2021/08/07 02:17:37;;;;;;;14.68;3.80;;;;;;;21.62;71.53;100354.39;1719788;83;21143;-74
2021/08/07 02:20:05;;;;;;;4.92;2.67;;;;;;;21.61;71.73;100361.98;1646620;83;21509;-77
2021/08/07 02:22:33;;;;;;;4.55;2.72;;;;;;;21.61;71.63;100366.44;1692795;83;21082;-79
2021/08/07 02:25:01;;;;;;;4.70;2.62;;;;;;;21.60;71.62;100364.81;1719755;83;21436;-74
2021/08/07 02:27:33;;;;;;;;;;;;;;;21.57;71.70;100363.83;1706776;83;21057;-81
2021/08/07 02:30:00;;;;;;;4.20;2.37;;;;;;;21.53;71.69;100362.07;1719740;83;21814;-75
2021/08/07 02:32:29;;;;;;;7.67;2.33;;;;;;;21.50;71.82;100364.24;1719658;83;20902;-82
2021/08/07 02:34:58;;;;;;;2.75;2.25;;;;;;;21.46;71.95;100367.73;1719547;82;20904;-76
2021/08/07 02:37:27;;;;;;;3.42;2.50;;;;;;;21.43;72.04;100365.45;1719404;83;20952;-71
2021/08/07 02:39:54;;;;;;;2.83;2.17;;;;;;;21.40;72.24;100359.70;1719824;83;21137;-76
2021/08/07 02:42:21;;;;;;;3.85;2.17;;;;;;;21.34;72.47;100353.33;1719552;83;21110;-75
2021/08/07 02:44:49;;;;;;;3.05;2.10;;;;;;;21.30;72.66;100348.08;1719756;83;20936;-77
2021/08/07 02:47:18;;;;;;;6.58;2.20;;;;;;;21.27;72.84;100340.52;1719545;83;20939;-76
2021/08/07 02:49:45;;;;;;;3.15;2.45;;;;;;;21.24;72.92;100337.41;1699947;83;21004;-81
2021/08/07 02:52:12;;;;;;;2.80;1.85;;;;;;;21.20;72.95;100338.75;1727403;83;21240;-80
2021/08/07 02:54:42;;;;;;;4.33;2.02;;;;;;;21.16;73.09;100343.55;1727231;83;21171;-80
2021/08/07 02:57:08;;;;;;;2.42;2.20;;;;;;;21.12;73.19;100340.97;1727012;83;21609;-76
2021/08/07 02:59:37;;;;;;;3.60;2.10;;;;;;;21.09;73.14;100342.65;1727184;82;20943;-77
2021/08/07 03:02:06;;;;;;;3.35;2.40;;;;;;;21.07;73.23;100345.41;1727249;83;20986;-76
2021/08/07 03:04:35;;;;;;;4.33;2.33;;;;;;;21.04;73.45;100358.96;1727355;83;20995;-79
2021/08/07 03:07:03;;;;;;;5.05;2.25;;;;;;;21.03;73.67;100371.00;1727351;83;21149;-76
2021/08/07 03:09:30;;;;;;;6.60;2.20;;;;;;;;;;1727154;83;21518;-80
2021/08/07 03:11:59;;;;;;;2.72;1.77;;;;;;;20.99;73.70;100392.16;1727277;83;20895;-77
2021/08/07 03:14:27;;;;;;;4.92;2.20;;;;;;;20.97;73.80;100398.91;1727152;83;21007;-75
2021/08/07 03:16:56;;;;;;;4.20;2.15;;;;;;;20.94;73.95;100412.45;1727205;83;20996;-81
2021/08/07 03:19:24;;;;;;;2.15;1.80;;;;;;;20.92;74.00;100427.64;1727301;83;21188;-75
2021/08/07 03:21:53;;;;;;;2.67;2.10;;;;;;;20.89;74.21;100434.58;1727079;83;20967;-74
2021/08/07 03:24:21;;;;;;;7.28;1.98;;;;;;;20.87;74.47;100443.63;1727132;83;21557;-75
2021/08/07 03:26:49;;;;;;;4.67;2.10;;;;;;;20.83;74.66;100447.14;1727137;83;20931;-78
2021/08/07 03:29:18;;;;;;;4.10;2.10;;;;;;;20.82;74.95;100457.36;1727010;83;21051;-75
2021/08/07 03:31:45;;;;;;;2.70;1.92;;;;;;;20.81;75.14;100469.38;1727130;83;21968;-77
2021/08/07 03:34:14;;;;;;;4.03;2.10;;;;;;;20.79;75.26;100472.70;1727115;83;21547;-75
2021/08/07 03:36:43;;;;;;;5.53;2.55;;;;;;;20.76;75.28;100459.86;1727101;83;21059;-72
2021/08/07 03:39:11;;;;;;;2.20;2.00;;;;;;;20.75;75.57;100456.89;1727179;83;21499;-76
2021/08/07 03:41:38;;;;;;;2.72;2.10;;;;;;;20.75;75.58;100462.98;1727348;83;21545;-77
2021/08/07 03:44:08;;;;;;;3.08;1.77;;;;;;;20.72;75.71;100463.33;1727196;83;21104;-72
2021/08/07 03:46:35;;;;;;;2.87;2.05;;;;;;;20.71;76.06;100459.04;1727274;83;21026;-77
2021/08/07 03:49:02;;;;;;;5.45;2.00;;;;;;;20.70;76.11;100456.59;1723574;83;21106;-73
2021/08/07 03:51:29;;;;;;;2.30;1.85;;;;;;;20.72;76.34;100458.05;1719807;83;20955;-83
2021/08/07 03:53:56;;;;;;;7.17;2.05;;;;;;;20.72;76.37;100463.33;1693075;83;20916;-80
2021/08/07 03:56:26;;;;;;;3.92;1.90;;;;;;;20.73;76.38;100477.34;1719515;83;21167;-76
2021/08/07 03:58:53;;;;;;;9.55;2.62;;;;;;;20.74;76.50;100491.66;1719856;83;20971;-73
2021/08/07 04:01:23;;;;;;;3.35;1.90;;;;;;;20.75;76.74;100507.82;1719565;82;20967;-82
2021/08/07 04:03:52;;;;;;;3.12;2.17;;;;;;;20.79;76.68;100511.77;1719777;83;21215;-76
2021/08/07 04:06:19;;;;;;;1.92;1.75;;;;;;;20.83;76.72;100513.58;1719544;83;21619;-74
2021/08/07 04:08:46;;;;;;;3.72;2.12;;;;;;;20.84;76.70;100512.56;1719799;83;21806;-80
2021/08/07 04:11:13;;;;;;;2.60;1.92;;;;;;;20.84;76.74;100518.66;1719853;83;20996;-75
2021/08/07 04:13:41;;;;;;;6.30;2.60;;;;;;;20.85;76.92;100530.04;1719084;83;20960;-74
2021/08/07 04:16:09;;;;;;;4.37;2.00;;;;;;;20.85;76.91;100533.50;1719716;83;20892;-77
2021/08/07 04:18:38;;;;;;;4.70;2.42;;;;;;;20.87;77.06;100542.55;1719749;83;20920;-77
2021/08/07 04:21:05;;;;;;;2.10;1.90;;;;;;;20.88;77.13;100540.25;1719553;83;21194;-78
2021/08/07 04:23:33;;;;;;;2.35;1.60;;;;;;;20.88;77.26;100552.95;1719966;83;21560;-80
2021/08/07 04:26:00;;;;;;;2.95;1.95;;;;;;;20.86;77.47;100555.44;1719498;83;21525;-75
2021/08/07 04:28:27;;;;;;;3.47;1.90;;;;;;;20.84;77.76;100557.39;1719688;83;21459;-77
2021/08/07 04:30:55;;;;;;;4.65;2.40;;;;;;;20.83;77.95;100550.01;1719672;83;21517;-75
2021/08/07 04:33:21;;;;;;;5.28;2.60;;;;;;;20.85;78.11;100557.73;1719941;83;21526;-82
2021/08/07 04:35:48;;;;;;;5.53;2.65;;;;;;;20.89;78.31;100555.09;1719649;83;21059;-77
2021/08/07 04:38:20;;;;;;;6.03;2.20;;;;;;;20.90;78.31;100560.70;1719825;83;20986;-75
2021/08/07 04:40:48;;;;;;;5.03;2.10;;;;;;;20.90;78.51;100557.55;1719794;83;20960;-75
2021/08/07 04:43:17;;;;;;;5.55;3.10;;;;;;;20.91;78.68;100561.01;1719100;83;21061;-81
2021/08/07 04:45:44;;;;;;;3.80;2.40;;;;;;;20.92;78.80;100558.70;1719705;83;21111;-77
2021/08/07 04:48:12;;;;;;;4.08;2.27;;;;;;;20.92;78.90;100566.13;1719301;83;20970;-79
2021/08/07 04:50:40;;;;;;;3.75;2.10;;;;;;;20.91;79.17;100563.64;1704601;84;20924;-74
2021/08/07 04:53:08;;;;;;;4.92;2.10;;;;;;;20.91;79.27;100565.80;1706238;84;21028;-78
2021/08/07 04:55:36;;;;;;;4.25;2.25;;;;;;;20.93;79.44;100568.28;1706218;84;21483;-75
2021/08/07 04:58:03;;;;;;;3.47;2.22;;;;;;;20.95;79.43;100569.75;1706052;84;21847;-80
2021/08/07 05:00:45;;;;;;;5.67;2.50;;;;;;;20.97;79.54;100578.30;1705909;84;20915;-78
2021/08/07 05:03:12;;;;;;;4.50;2.25;;;;;;;21.00;79.56;100577.95;1706728;84;21434;-82
2021/08/07 05:05:41;;;;;;;4.85;2.60;;;;;;;21.05;79.70;100585.38;1705945;84;21022;-76
2021/08/07 05:08:10;;;;;;;3.67;2.45;;;;;;;21.10;79.21;100585.70;1706136;84;21533;-80
2021/08/07 05:10:37;;;;;;;7.72;2.55;;;;;;;21.15;78.96;100583.89;1706257;84;21826;-77
2021/08/07 05:13:04;;;;;;;4.62;2.80;;;;;;;21.17;78.91;100586.67;1705840;84;21525;-74
2021/08/07 05:15:32;;;;;;;5.37;2.42;;;;;;;21.20;78.66;100584.19;1681649;84;21494;-82
2021/08/07 05:18:06;;;;;;;9.75;3.08;;;;;;;21.24;78.03;100582.86;1706137;84;20951;-77
2021/08/07 05:20:35;;;;;;;4.05;2.30;;;;;;;21.25;77.99;100577.91;1706331;84;21011;-75
2021/08/07 05:23:02;;;;;;;4.35;2.65;;;;;;;21.28;78.00;100578.89;1706059;83;21179;-75
2021/08/07 05:25:29;;;;;;;4.45;2.15;;;;;;;21.30;77.73;100575.56;1706117;84;21529;-75
2021/08/07 05:27:56;;;;;;;5.95;2.50;;;;;;;21.32;77.47;100570.92;1706128;84;21038;-76
2021/08/07 05:30:24;;;;;;;6.75;2.72;;;;;;;21.34;77.38;100570.28;1681529;84;21493;-75
2021/08/07 05:32:51;;;;;;;6.92;2.08;;;;;;;21.38;77.26;100571.06;1706018;82;21506;-76
2021/08/07 05:35:18;;;;;;;6.80;3.17;;;;;;;21.43;76.85;100567.42;1706025;84;21079;-75
2021/08/07 05:37:46;;;;;;;7.40;2.70;;;;;;;21.49;76.74;100565.89;1681611;84;20958;-78
2021/08/07 05:40:14;;;;;;;3.95;2.58;;;;;;;21.50;76.73;100572.83;1706071;84;21047;-78
2021/08/07 05:42:42;;;;;;;9.35;2.80;;;;;;;21.50;77.00;100569.70;1705921;84;20986;-76
2021/08/07 05:45:10;;;;;;;5.62;2.70;;;;;;;21.54;76.82;100576.25;1706147;84;21510;-76
2021/08/07 05:47:37;;;;;;;4.72;2.75;;;;;;;21.60;76.52;100566.31;1706313;84;21782;-83
2021/08/07 05:50:07;;;;;;;9.45;2.40;;;;;;;21.63;76.15;100577.84;1706239;84;21058;-78
2021/08/07 05:52:36;;;;;;;9.65;2.60;;;;;;;21.65;75.84;100571.08;1681979;84;20872;-75
2021/08/07 05:55:06;;;;;;;5.58;2.60;;;;;;;21.66;75.20;100579.34;1706216;84;21089;-78
2021/08/07 05:57:33;;;;;;;4.83;2.33;;;;;;;21.68;74.62;100576.51;1681334;84;21567;-80
2021/08/07 06:00:03;;;;;;;7.37;2.25;;;;;;;21.73;74.35;100574.98;1732227;81;21605;-74
2021/08/07 06:02:32;;;;;;;5.72;2.15;;;;;;;21.78;74.05;100590.31;1750062;82;20959;-77
2021/08/07 06:04:59;;;;;;;4.10;2.55;;;;;;;21.82;73.74;100597.73;1751853;82;21510;-77
2021/08/07 06:07:28;;;;;;;2.20;2.00;;;;;;;21.89;73.50;100603.97;1751863;82;20995;-74
2021/08/07 06:09:56;;;;;;;4.70;2.08;;;;;;;21.95;73.24;100606.42;1751943;82;21073;-76
2021/08/07 06:12:24;;;;;;;9.23;2.30;;;;;;;22.02;72.65;100612.63;1752070;82;20920;-77
2021/08/07 06:14:51;;;;;;;8.05;1.72;;;;;;;22.07;72.14;100608.48;1751682;82;21028;-75
2021/08/07 06:17:19;;;;;;;8.25;2.15;;;;;;;22.13;71.78;100618.84;1751790;82;20980;-73
2021/08/07 06:19:47;;;;;;;10.85;4.10;;;;;;;22.12;71.97;100615.37;1751737;82;21455;-78
2021/08/07 06:22:14;;;;;;;9.68;2.52;;;;;;;22.20;72.02;100618.95;1752113;82;21404;-76
2021/08/07 06:24:41;;;;;;;7.55;2.40;;;;;;;22.27;71.91;100623.86;1751861;82;21134;-76
2021/08/07 06:27:07;;;;;;;12.30;2.70;;;;;;;22.34;70.91;100630.06;1751682;82;21062;-82
2021/08/07 06:29:34;;;;;;;7.58;2.55;;;;;;;22.33;70.39;100643.80;1751834;82;21486;-79
2021/08/07 06:32:03;;;;;;;7.00;1.80;;;;;;;22.30;70.42;100652.59;1751796;82;21086;-77
2021/08/07 06:34:31;;;;;;;5.25;2.90;;;;;;;22.28;70.67;100655.39;1751736;82;21065;-78
2021/08/07 06:36:58;;;;;;;7.00;2.17;;;;;;;22.25;70.65;100666.32;1740057;81;21191;-78
2021/08/07 06:39:26;;;;;;;4.20;2.40;;;;;;;22.27;70.76;100672.77;1752265;82;21403;-75
2021/08/07 06:41:53;;;;;;;6.65;2.27;;;;;;;22.27;70.25;100680.70;1752014;82;21478;-74
2021/08/07 06:44:21;;;;;;;7.55;2.85;;;;;;;22.30;70.34;100697.53;1751395;81;20994;-79
2021/08/07 06:46:49;;;;;;;7.55;2.85;;;;;;;22.31;69.91;100688.58;1751885;82;20884;-79
2021/08/07 06:49:16;;;;;;;8.35;3.67;;;;;;;22.31;69.73;100697.34;1752037;81;21105;-81
2021/08/07 06:51:43;;;;;;;5.85;3.45;;;;;;;22.30;70.13;100696.21;1751594;82;21474;-77
2021/08/07 06:54:11;;;;;;;4.75;2.90;;;;;;;22.31;70.09;100692.55;1751744;82;21467;-81
2021/08/07 06:56:38;;;;;;;11.40;2.77;;;;;;;22.36;69.68;100702.11;1751874;82;20979;-79
2021/08/07 06:59:05;;;;;;;10.50;2.22;;;;;;;22.39;69.35;100709.20;1751201;81;21058;-81
2021/08/07 07:01:33;;;;;;;5.90;2.42;;;;;;;22.43;69.08;100701.73;1735749;82;21160;-73
2021/08/07 07:04:01;;;;;;;7.95;2.83;;;;;;;22.49;69.25;100699.70;1744309;82;21007;-81
2021/08/07 07:06:27;;;;;;;5.83;3.55;;;;;;;22.58;69.20;100696.82;1744256;82;21466;-79
2021/08/07 07:08:57;;;;;;;4.70;2.95;;;;;;;22.63;68.59;100702.39;1744239;81;21047;-76
2021/08/07 07:11:24;;;;;;;5.58;2.30;;;;;;;22.69;68.02;100698.75;1744245;82;21059;-80
2021/08/07 07:13:51;;;;;;;12.55;3.15;;;;;;;22.73;67.76;100700.84;1744525;80;21116;-80
2021/08/07 07:16:18;;;;;;;6.92;3.92;;;;;;;22.79;67.45;100701.95;1744286;82;20968;-78
2021/08/07 07:18:46;;;;;;;9.28;2.55;;;;;;;22.81;66.58;100706.58;1744054;82;20991;-80
2021/08/07 07:21:13;;;;;;;7.67;2.90;;;;;;;22.83;66.90;100706.72;1743927;82;20975;-76
2021/08/07 07:23:40;;;;;;;10.03;3.87;;;;;;;22.92;67.39;100705.64;1744017;82;21578;-78
2021/08/07 07:26:07;;;;;;;6.00;2.70;;;;;;;23.03;66.27;100701.24;1744005;81;22028;-80
2021/08/07 07:28:36;;;;;;;9.78;1.90;;;;;;;23.12;65.99;100700.65;1744073;82;20941;-79
2021/08/07 07:31:03;;;;;;;4.62;2.35;;;;;;;23.23;65.77;100709.98;1744063;82;21518;-82
2021/08/07 07:33:30;;;;;;;3.45;1.90;;;;;;;23.30;64.71;100713.52;1744171;81;21020;-79
2021/08/07 07:35:58;;;;;;;13.58;2.52;;;;;;;23.32;64.40;100710.20;1744154;82;20920;-79
2021/08/07 07:38:25;;;;;;;7.30;2.22;;;;;;;23.33;63.86;100706.53;1744146;82;21162;-79
2021/08/07 07:40:54;;;;;;;2.08;1.62;;;;;;;23.30;63.64;100702.92;1735429;82;21542;-74
2021/08/07 07:43:22;;;;;;;13.65;1.95;;;;;;;23.28;63.58;100694.36;1744092;82;20984;-76
2021/08/07 07:45:50;;;;;;;8.50;2.67;;;;;;;23.30;62.55;100688.36;1744037;81;21513;-75
2021/08/07 07:48:17;;;;;;;9.25;3.33;;;;;;;23.29;62.27;100689.39;1744413;81;20981;-75
2021/08/07 07:50:44;;;;;;;7.95;2.50;;;;;;;23.31;61.97;100675.45;1743931;81;21208;-76
2021/08/07 07:53:12;;;;;;;12.58;2.12;;;;;;;23.36;61.28;100689.78;1744285;82;21486;-79
2021/08/07 07:55:39;;;;;;;11.20;2.22;;;;;;;23.44;60.55;100687.08;1744031;81;21491;-76
2021/08/07 07:58:08;;;;;;;9.80;1.87;;;;;;;23.48;58.87;100696.31;1744036;81;20952;-80
2021/08/07 08:00:35;;;;;;;16.55;3.00;;;;;;;23.50;57.52;100690.31;1749406;81;20837;-78
2021/08/07 08:03:04;;;;;;;12.13;2.45;;;;;;;23.51;56.73;100692.47;1751136;81;21531;-80
2021/08/07 08:05:36;;;;;;;18.37;2.20;;;;;;;23.54;55.58;100690.28;1750278;81;20927;-77
2021/08/07 08:08:05;;;;;;;11.30;2.25;;;;;;;23.56;53.92;100692.73;1749985;81;21062;-76
2021/08/07 08:10:35;;;;;;;10.93;2.05;;;;;;;23.53;53.16;100689.13;1749116;82;20932;-76
2021/08/07 08:13:02;;;;;;;6.08;1.65;;;;;;;23.54;53.16;100698.23;1740278;82;20992;-75
2021/08/07 08:15:30;;;;;;;15.65;2.65;;;;;;;23.56;53.45;100704.15;1719715;82;21108;-77
2021/08/07 08:17:57;;;;;;;9.43;2.10;;;;;;;23.61;53.23;100708.91;1740307;82;21063;-77
2021/08/07 08:20:25;;;;;;;13.43;2.52;;;;;;;23.69;52.80;100713.59;1740639;82;21480;-72
2021/08/07 08:22:53;;;;;;;14.45;5.75;;;;;;;23.76;52.00;100717.66;1740201;82;38077;-82
2021/08/07 08:25:19;;;;;;;13.55;6.12;;;;;;;23.80;51.92;100734.84;1740247;82;21039;-72
2021/08/07 08:27:46;;;;;;;8.20;1.80;;;;;;;23.86;51.62;100722.66;1740430;81;21142;-74
2021/08/07 08:30:15;;;;;;;10.78;2.00;;;;;;;23.97;51.59;100730.12;1739815;82;20928;-75
2021/08/07 08:32:42;;;;;;;3.67;1.85;;;;;;;24.10;51.59;100727.63;1740169;82;21039;-79
2021/08/07 08:35:10;;;;;;;3.70;1.45;;;;;;;24.31;51.15;100734.83;1739781;82;21538;-72
2021/08/07 08:37:37;;;;;;;3.22;1.30;;;;;;;24.54;50.60;100732.80;1740117;82;20947;-74
2021/08/07 08:40:06;;;;;;;12.20;1.72;;;;;;;24.78;50.23;100731.09;1740082;82;21150;-77
2021/08/07 08:42:33;;;;;;;3.30;1.60;;;;;;;24.98;50.04;100733.94;1740181;82;20979;-73
2021/08/07 08:45:00;;;;;;;10.72;1.95;;;;;;;25.10;48.09;100736.38;1740195;82;21569;-81
2021/08/07 08:47:27;;;;;;;4.55;1.25;;;;;;;25.15;48.20;100729.46;1740460;82;20948;-76
2021/08/07 08:49:55;;;;;;;15.20;2.58;;;;;;;25.27;46.08;100736.41;1740212;82;21074;-76
2021/08/07 08:52:25;;;;;;;9.28;1.57;;;;;;;25.33;46.38;100741.44;1740180;82;21506;-79
2021/08/07 08:54:52;;;;;;;13.80;2.08;;;;;;;25.37;46.16;100743.49;1740155;82;20984;-77
2021/08/07 08:57:21;;;;;;;7.20;1.85;;;;;;;25.39;43.28;100745.97;1740116;82;21589;-81
2021/08/07 08:59:48;;;;;;;3.95;1.57;;;;;;;25.39;43.51;100745.97;1740000;82;21510;-78
2021/08/07 09:02:16;;;;;;;6.75;1.57;;;;;;;25.44;43.01;100752.83;1740038;82;20940;-80
2021/08/07 09:04:42;;;;;;;2.65;1.37;;;;;;;25.48;43.46;100746.13;1739869;82;21131;-78
2021/08/07 09:07:15;;;;;;;4.12;1.60;;;;;;;25.59;42.84;100742.95;1739791;82;21028;-77
2021/08/07 09:09:45;;;;;;;;;;;;;;;25.74;41.50;100744.97;1742887;82;21550;-76
2021/08/07 09:12:14;;;;;;;;;;;;;;;25.89;39.87;100742.16;1742668;82;20142;-77
2021/08/07 09:14:46;;;;;;;12.13;2.65;;;;;;;25.97;39.84;100741.49;1740321;82;20083;-77
2021/08/07 09:17:20;;;;;;;9.85;1.85;;;;;;;26.05;39.61;100742.63;1740021;82;21125;-75
2021/08/07 09:19:53;;;;;;;6.08;1.82;;;;;;;26.17;39.07;100742.39;1738878;82;21467;-79
2021/08/07 09:22:26;;;;;;;5.15;1.75;;;;;;;26.26;37.98;100745.70;1739380;82;21042;-77
2021/08/07 09:25:13;;;;;;;5.83;1.32;;;;;;;26.24;38.75;100756.53;1740310;81;20880;-77
2021/08/07 09:27:50;;;;;;;8.98;1.85;;;;;;;26.31;37.70;100753.89;1740057;82;21550;-78
2021/08/07 09:30:25;;;;;;;9.33;2.35;;;;;;;26.39;37.04;100751.03;1740259;82;22072;-76
2021/08/07 09:32:58;;;;;;;2.98;1.57;;;;;;;26.44;37.79;100751.27;1739545;82;20989;-82
2021/08/07 09:35:27;;;;;;;;;;;;;;;26.51;37.44;100750.77;1742780;82;21483;-75
2021/08/07 09:38:23;;;;;;;3.95;1.45;;;;;;;26.55;37.17;100745.86;1740172;82;20139;-74
2021/08/07 09:41:03;;;;;;;1.82;1.37;;;;;;;26.60;37.72;100756.70;1739291;82;21027;-77
2021/08/07 09:43:45;;;;;;;7.67;2.00;;;;;;;26.60;37.32;100754.05;1740006;81;21148;-78
2021/08/07 09:46:24;;;;;;;1.25;1.15;;;;;;;26.59;36.95;100755.87;1738841;82;21077;-81
2021/08/07 09:48:59;;;;;;;2.15;1.55;;;;;;;26.58;36.22;100765.42;1739358;82;20924;-77
2021/08/07 09:51:33;;;;;;;3.58;1.65;;;;;;;26.57;37.29;100763.27;1740094;82;21062;-82
2021/08/07 09:54:16;;;;;;;7.62;2.00;;;;;;;26.56;36.72;100753.62;1740101;82;21049;-75
2021/08/07 09:56:54;;;;;;;4.15;1.55;;;;;;;26.62;36.59;100753.32;1740275;82;21712;-78
2021/08/07 09:59:33;;;;;;;3.90;1.43;;;;;;;26.74;35.93;100763.66;1740505;82;21033;-80
2021/08/07 10:02:00;;;;;;;6.72;2.05;;;;;;;27.16;34.51;100761.14;1744925;82;21534;-78
2021/08/07 10:04:39;;;;;;;2.77;1.30;;;;;;;27.89;34.39;100770.62;1704059;82;21049;-75
2021/08/07 10:07:08;;;;;;;2.83;1.27;;;;;;;28.40;31.93;100770.61;1746227;82;21006;-79
2021/08/07 10:09:37;;;;;;;6.65;1.60;;;;;;;28.72;31.66;100762.09;1746429;81;21136;-81
2021/08/07 10:12:12;;;;;;;5.47;1.57;;;;;;;29.76;31.03;100771.01;1745829;81;21026;-79
2021/08/07 10:14:42;;;;;;;3.30;1.42;;;;;;;31.08;27.78;100768.64;1746198;82;21035;-78
2021/08/07 10:17:13;;;;;;;3.72;1.50;;;;;;;31.82;26.64;100757.15;1745986;82;20932;-76
2021/08/07 10:19:42;;;;;;;2.75;1.20;;;;;;;32.47;26.26;100772.38;1746387;82;21019;-76
2021/08/07 10:22:11;;;;;;;9.45;1.70;;;;;;;32.82;25.17;100771.38;1746510;82;21553;-79
2021/08/07 10:24:44;;;;;;;6.65;1.50;;;;;;;32.93;25.15;100772.63;1746203;81;21024;-79
2021/08/07 10:27:12;;;;;;;4.25;1.50;;;;;;;33.31;25.40;100762.48;1747418;82;21037;-75
2021/08/07 10:29:46;;;;;;;3.27;1.32;;;;;;;33.59;24.63;100766.06;1747002;82;20999;-74
2021/08/07 10:32:15;;;;;;;2.70;1.32;;;;;;;33.17;24.92;100773.30;1746375;82;20988;-76
2021/08/07 10:34:51;;;;;;;6.50;1.70;;;;;;;32.72;25.52;100768.52;1746717;82;21117;-76
2021/08/07 10:37:19;;;;;;;3.02;1.22;;;;;;;32.01;26.57;100777.91;1746388;82;21403;-79
2021/08/07 10:39:47;;;;;;;3.70;1.22;;;;;;;31.30;25.96;100765.66;1746253;82;20922;-79
2021/08/07 10:42:17;;;;;;;5.80;1.60;;;;;;;30.76;27.85;100763.30;1746315;82;21054;-76
2021/08/07 10:44:46;;;;;;;6.03;1.95;;;;;;;30.36;26.62;100759.84;1746358;82;20972;-78
2021/08/07 10:47:13;;;;;;;4.05;1.65;;;;;;;29.93;28.18;100769.37;1746237;82;21125;-74
2021/08/07 10:49:47;;;;;;;6.00;2.00;;;;;;;29.54;28.39;100756.97;1746232;82;21006;-74
2021/08/07 10:52:30;;;;;;;4.35;1.87;;;;;;;29.21;28.27;100753.26;1746349;82;21478;-76
2021/08/07 10:54:57;;;;;;;5.92;1.92;;;;;;;28.91;29.06;100757.66;1746412;82;20952;-75
2021/08/07 10:57:36;;;;;;;5.28;2.15;;;;;;;28.62;29.57;100751.87;1746247;82;21010;-79
2021/08/07 11:00:19;;;;;;;4.22;1.80;;;;;;;28.51;28.93;100747.75;1746408;82;21049;-82
2021/08/07 11:02:46;;;;;;;6.65;1.70;;;;;;;28.45;29.08;100751.28;1742976;82;21019;-73
2021/08/07 11:05:13;;;;;;;3.20;1.62;;;;;;;28.35;28.75;100749.91;1743974;82;20948;-79
2021/08/07 11:07:40;;;;;;;9.98;2.65;;;;;;;28.33;29.78;100749.31;1743949;82;20968;-78
2021/08/07 11:10:13;;;;;;;4.20;2.27;;;;;;;28.32;30.48;100739.66;1744072;82;21932;-75
2021/08/07 11:12:42;;;;;;;6.95;2.67;;;;;;;28.42;30.62;100734.36;1744145;81;20936;-75
2021/08/07 11:15:31;;;;;;;8.33;4.90;;;;;;;28.61;30.04;100738.23;1743948;82;21015;-79
2021/08/07 11:18:24;;;;;;;5.90;2.62;;;;;;;28.74;29.73;100748.03;1743869;82;21530;-78
2021/08/07 11:20:51;;;;;;;4.15;2.62;;;;;;;28.82;28.73;100757.92;1743917;82;21510;-75
2021/08/07 11:23:19;;;;;;;3.40;1.87;;;;;;;28.63;28.92;100750.84;1743819;82;20845;-74
2021/08/07 11:25:54;;;;;;;5.40;1.80;;;;;;;28.54;28.09;100747.31;1744078;82;21136;-75
2021/08/07 11:28:21;;;;;;;2.67;1.80;;;;;;;28.43;28.95;100751.52;1743175;82;20995;-77
2021/08/07 11:31:11;;;;;;;1.90;1.55;;;;;;;28.54;28.01;100756.66;1724878;82;20987;-75
2021/08/07 11:33:37;;;;;;;4.60;2.05;;;;;;;28.66;27.81;100748.28;1744147;82;20947;-77
2021/08/07 11:36:04;;;;;;;12.30;2.55;;;;;;;28.58;27.16;100744.01;1725304;82;21500;-77
2021/08/07 11:38:31;;;;;;;5.10;2.20;;;;;;;28.60;28.22;100739.77;1744162;82;21195;-77